Time;durP1;ratioP1;P1;durP2;ratioP2;P2;SDS_P1;SDS_P2;PMS_P1;PMS_P2;Temp;Humidity;BMP_temperature;BMP_pressure;BME280_temperature;BME280_humidity;BME280_pressure;Samples;Min_cycle;Max_cycle;Signal;HPM_P1;HPM_P2
2023/01/20 00:05:00;;;;;;;;;;;;;;;-1.74;100.00;100873.44;10502516;28;20007;-78
2023/01/20 00:10:00;;;;;;;;;;;;;;;-1.69;100.00;100879.94;10506068;28;19974;-78
2023/01/20 00:15:00;;;;;;;;;;;;;;;-1.68;100.00;100881.75;10506195;28;19943;-79
2023/01/20 00:20:01;;;;;;;;;;;;;;;-1.66;100.00;100887.94;10463612;28;19920;-79
2023/01/20 00:25:01;;;;;;;;;;;;;;;-1.65;100.00;100892.31;10505230;28;20275;-79
2023/01/20 00:30:02;;;;;;;;;;;;;;;-1.65;100.00;100891.38;10480630;28;20368;-79
2023/01/20 00:35:03;;;;;;;;;;;;;;;-1.65;100.00;100894.88;10505256;28;19927;-78
2023/01/20 00:40:03;;;;;;;;;;;;;;;-1.68;100.00;100894.56;10497588;28;19924;-79
2023/01/20 00:45:04;;;;;;;;;;;;;;;-1.69;100.00;100891.84;10463168;28;19920;-79
2023/01/20 00:50:04;;;;;;;;;;;;;;;-1.71;100.00;100903.63;10489201;28;20002;-79
2023/01/20 00:55:05;;;;;;;;;;;;;;;-1.69;100.00;100912.38;10506900;28;19920;-79
2023/01/20 01:00:05;;;;;;;;;;;;;;;-1.65;100.00;100910.28;10530997;28;20325;-79
2023/01/20 01:05:06;;;;;;;;;;;;;;;-1.63;100.00;100916.44;10512747;28;19920;-78
2023/01/20 01:10:06;;;;;;;;;;;;;;;-1.59;100.00;100924.44;10528047;28;19926;-78
2023/01/20 01:15:07;;;;;;;;;;;;;;;-1.60;100.00;100925.22;10531000;28;20002;-78
2023/01/20 01:20:08;;;;;;;;;;;;;;;-1.60;100.00;100931.22;10502634;28;19929;-79
2023/01/20 01:25:08;;;;;;;;;;;;;;;-1.58;100.00;100939.09;10488831;28;19970;-78
2023/01/20 01:30:09;;;;;;;;;;;;;;;-1.65;100.00;100933.38;10484593;28;20292;-78
2023/01/20 01:35:09;;;;;;;;;;;;;;;-1.71;100.00;100948.16;10488625;28;20032;-78
2023/01/20 01:40:10;;;;;;;;;;;;;;;-1.72;100.00;100955.69;10482082;28;19920;-78
2023/01/20 01:45:10;;;;;;;;;;;;;;;-1.68;100.00;100956.16;10429613;28;20012;-78
2023/01/20 01:50:12;;;;;;;;;;;;;;;-1.65;100.00;100964.16;10470330;28;19920;-78
2023/01/20 01:55:13;;;;;;;;;;;;;;;-1.65;100.00;100966.72;10489366;28;19989;-78
2023/01/20 02:00:13;;;;;;;;;;;;;;;-1.67;100.00;100972.44;10485744;28;19921;-78
2023/01/20 02:05:13;;;;;;;;;;;;;;;-1.64;100.00;100967.63;10486592;28;19923;-78
2023/01/20 02:10:14;;;;;;;;;;;;;;;-1.66;100.00;100971.69;10456417;28;19927;-78
2023/01/20 02:15:15;;;;;;;;;;;;;;;-1.72;100.00;100964.31;10459852;28;20015;-78
2023/01/20 02:20:18;;;;;;;;;;;;;;;-1.95;100.00;100967.16;10456568;28;19921;-78
2023/01/20 02:25:22;;;;;;;;;;;;;;;-2.30;100.00;100977.38;10460987;28;19952;-78
2023/01/20 02:30:41;;;;;;;;;;;;;;;-2.38;100.00;100986.88;10456425;28;19920;-78
2023/01/20 02:36:01;;;;;;;;;;;;;;;-2.53;100.00;100992.25;10461528;28;19921;-79
2023/01/20 02:41:31;;;;;;;;;;;;;;;-2.33;100.00;100985.69;10447277;28;19960;-78
2023/01/20 02:47:00;;;;;;;;;;;;;;;-2.44;100.00;100982.00;10470088;28;20288;-78
2023/01/20 02:52:02;;;;;;;;;;;;;;;-2.57;100.00;100986.66;10434049;28;19925;-78
2023/01/20 02:57:03;;;;;;;;;;;;;;;-2.35;100.00;100997.44;10453449;28;19925;-78
2023/01/20 03:02:07;;;;;;;;;;;;;;;-2.23;100.00;100993.53;10446725;28;20365;-78
2023/01/20 03:07:08;;;;;;;;;;;;;;;-2.09;100.00;101000.03;10490304;28;19934;-78
2023/01/20 03:12:11;;;;;;;;;;;;;;;-1.98;100.00;101002.78;10507247;28;19932;-79
2023/01/20 03:17:11;;;;;;;;;;;;;;;-1.94;100.00;101004.91;10503369;28;19928;-78
2023/01/20 03:22:11;;;;;;;;;;;;;;;-1.84;100.00;101009.31;10485324;28;19916;-79
2023/01/20 03:27:12;;;;;;;;;;;;;;;-1.84;100.00;101004.16;10507243;28;19928;-78
2023/01/20 03:32:12;;;;;;;;;;;;;;;-1.82;100.00;101002.66;10504726;28;20113;-79
2023/01/20 03:37:12;;;;;;;;;;;;;;;-1.79;100.00;101003.84;10521495;28;20257;-79
2023/01/20 03:42:23;;;;;;;;;;;;;;;-1.76;100.00;101010.97;10466646;28;19923;-78
2023/01/20 03:47:42;;;;;;;;;;;;;;;-1.74;100.00;101004.31;10506080;28;19924;-78
2023/01/20 03:52:42;;;;;;;;;;;;;;;-1.71;100.00;101003.72;10479883;28;19955;-79
2023/01/20 03:57:44;;;;;;;;;;;;;;;-1.67;100.00;101009.31;10512960;28;20011;-79
2023/01/20 04:02:45;;;;;;;;;;;;;;;-1.60;100.00;101018.50;10493498;28;19959;-79
2023/01/20 04:07:45;;;;;;;;;;;;;;;-1.53;100.00;101015.78;10495258;28;20015;-78
2023/01/20 04:12:45;;;;;;;;;;;;;;;-1.52;100.00;101017.59;10504245;28;19948;-78
2023/01/20 04:17:46;;;;;;;;;;;;;;;-1.58;100.00;101017.00;10512982;28;19928;-78
2023/01/20 04:22:54;;;;;;;;;;;;;;;-1.57;100.00;101029.06;10485468;28;20445;-78
2023/01/20 04:27:54;;;;;;;;;;;;;;;-1.55;100.00;101036.94;10494472;28;19926;-80
2023/01/20 04:32:54;;;;;;;;;;;;;;;-1.50;100.00;101038.31;10510204;28;20391;-78
2023/01/20 04:37:54;;;;;;;;;;;;;;;-1.47;100.00;101036.03;10521436;28;20011;-80
2023/01/20 04:42:55;;;;;;;;;;;;;;;-1.48;100.00;101037.69;10491553;28;19973;-79
2023/01/20 04:47:55;;;;;;;;;;;;;;;-1.44;100.00;101040.56;10502945;28;19924;-79
2023/01/20 04:52:55;;;;;;;;;;;;;;;-1.49;100.00;101029.84;10504578;28;19920;-79
2023/01/20 04:57:56;;;;;;;;;;;;;;;-1.55;100.00;101039.50;10493424;28;20387;-79
2023/01/20 05:02:57;;;;;;;;;;;;;;;-1.56;100.00;101048.84;10507519;28;20350;-80
2023/01/20 05:07:58;;;;;;;;;;;;;;;-1.54;100.00;101049.91;10476520;28;20275;-78
2023/01/20 05:12:58;;;;;;;;;;;;;;;-1.56;100.00;101051.44;10488243;28;19956;-78
2023/01/20 05:17:59;;;;;;;;;;;;;;;-1.59;100.00;101058.81;10510296;28;20023;-78
2023/01/20 05:22:59;;;;;;;;;;;;;;;-1.57;100.00;101074.38;10528415;28;19920;-78
2023/01/20 05:27:59;;;;;;;;;;;;;;;-1.59;100.00;101066.53;10492928;28;19920;-80
2023/01/20 05:33:00;;;;;;;;;;;;;;;-1.56;100.00;101074.53;10528229;28;20379;-79
2023/01/20 05:38:01;;;;;;;;;;;;;;;-1.57;100.00;101088.13;10492347;28;19920;-78
2023/01/20 05:43:01;;;;;;;;;;;;;;;-1.58;100.00;101088.88;10527435;28;20006;-79
2023/01/20 05:48:02;;;;;;;;;;;;;;;-1.56;100.00;101092.50;10500033;28;19997;-81
2023/01/20 05:53:02;;;;;;;;;;;;;;;-1.46;100.00;101093.41;10478487;28;20276;-79
2023/01/20 05:58:04;;;;;;;;;;;;;;;-1.48;100.00;101095.84;10511152;28;19920;-79
2023/01/20 06:03:05;;;;;;;;;;;;;;;-1.51;100.00;101100.66;10503056;28;20007;-78
2023/01/20 06:08:06;;;;;;;;;;;;;;;-1.48;100.00;101099.31;10514794;28;19932;-79
2023/01/20 06:13:06;;;;;;;;;;;;;;;-1.49;100.00;101100.06;10490565;28;19920;-79
2023/01/20 06:18:11;;;;;;;;;;;;;;;-1.40;100.00;101099.16;10488492;28;20388;-78
2023/01/20 06:23:12;;;;;;;;;;;;;;;-1.41;100.00;101108.53;10473478;28;19924;-81
2023/01/20 06:28:12;;;;;;;;;;;;;;;-1.43;100.00;101110.03;10455222;28;19922;-80
2023/01/20 06:33:12;;;;;;;;;;;;;;;-1.41;100.00;101108.53;10520336;28;20376;-80
2023/01/20 06:38:13;;;;;;;;;;;;;;;-1.52;100.00;101110.03;10505594;28;19927;-82
2023/01/20 06:43:13;;;;;;;;;;;;;;;-1.45;100.00;101110.63;10512220;28;19920;-80
2023/01/20 06:48:13;;;;;;;;;;;;;;;-1.38;100.00;101115.63;10479850;28;19977;-80
2023/01/20 06:53:14;;;;;;;;;;;;;;;-1.34;100.00;101120.31;10501872;28;19920;-80
2023/01/20 06:58:14;;;;;;;;;;;;;;;-1.33;100.00;101129.81;10496754;28;19920;-79
2023/01/20 07:03:14;;;;;;;;;;;;;;;-1.42;100.00;101141.75;10486993;28;20012;-79
2023/01/20 07:08:14;;;;;;;;;;;;;;;-1.41;100.00;101143.56;10515143;28;20344;-80
2023/01/20 07:13:15;;;;;;;;;;;;;;;-1.39;100.00;101148.13;10492187;28;20023;-80
2023/01/20 07:18:15;;;;;;;;;;;;;;;-1.34;100.00;101156.25;10515399;28;20252;-79
2023/01/20 07:23:15;;;;;;;;;;;;;;;-1.31;100.00;101155.69;10478424;28;20072;-80
2023/01/20 07:28:17;;;;;;;;;;;;;;;-1.25;100.00;101156.28;10487164;28;20014;-79
2023/01/20 07:33:17;;;;;;;;;;;;;;;-1.20;100.00;101152.50;10500060;28;20280;-80
2023/01/20 07:38:17;;;;;;;;;;;;;;;-1.16;100.00;101152.06;10490450;28;19924;-81
2023/01/20 07:43:17;;;;;;;;;;;;;;;-1.13;100.00;101164.28;10473001;28;19961;-81
2023/01/20 07:48:18;;;;;;;;;;;;;;;-0.99;100.00;101166.56;10504294;28;19928;-81
2023/01/20 07:53:18;;;;;;;;;;;;;;;-1.06;100.00;101170.19;10487044;28;20348;-79
2023/01/20 07:58:18;;;;;;;;;;;;;;;-1.00;100.00;101169.88;10521283;28;19920;-78
2023/01/20 08:03:19;;;;;;;;;;;;;;;-0.92;100.00;101179.25;10491326;28;20363;-81
2023/01/20 08:08:19;;;;;;;;;;;;;;;-0.87;100.00;101196.78;10529456;28;19926;-80
2023/01/20 08:13:20;;;;;;;;;;;;;;;-0.95;100.00;101194.38;10475820;28;19948;-80
2023/01/20 08:18:20;;;;;;;;;;;;;;;-1.02;100.00;101197.09;10513125;28;20375;-79
2023/01/20 08:23:21;;;;;;;;;;;;;;;-1.00;100.00;101203.28;10515424;28;19916;-79
2023/01/20 08:28:21;;;;;;;;;;;;;;;-1.07;100.00;101200.84;10514329;28;19928;-80
2023/01/20 08:33:21;;;;;;;;;;;;;;;-1.02;100.00;101199.66;10499729;28;19977;-80
2023/01/20 08:38:22;;;;;;;;;;;;;;;-0.99;100.00;101207.66;10497560;28;19927;-81
2023/01/20 08:43:23;;;;;;;;;;;;;;;-0.93;100.00;101199.69;10492210;28;19920;-80
2023/01/20 08:48:23;;;;;;;;;;;;;;;-0.72;100.00;101205.13;10490016;28;19920;-79
2023/01/20 08:53:24;;;;;;;;;;;;;;;-0.65;100.00;101211.00;10511605;28;19920;-78
2023/01/20 08:58:25;;;;;;;;;;;;;;;-0.68;100.00;101207.22;10499015;28;20269;-81
2023/01/20 09:03:25;;;;;;;;;;;;;;;-0.81;100.00;101203.47;10469214;28;19920;-82
2023/01/20 09:08:25;;;;;;;;;;;;;;;-0.83;100.00;101206.63;10500761;28;19926;-81
2023/01/20 09:13:26;;;;;;;;;;;;;;;-0.90;100.00;101205.13;10513675;28;19927;-81
2023/01/20 09:18:26;;;;;;;;;;;;;;;-1.01;100.00;101200.59;10501131;28;19932;-81
2023/01/20 09:23:26;;;;;;;;;;;;;;;-1.09;100.00;101212.66;10493512;28;20014;-82
2023/01/20 09:28:27;;;;;;;;;;;;;;;-1.20;100.00;101207.34;10496921;28;19919;-82
2023/01/20 09:33:27;;;;;;;;;;;;;;;-1.21;100.00;101209.78;10515554;28;19951;-82
2023/01/20 09:43:56;;;;;;;;;;;;;;;-1.23;100.00;101216.41;10527011;28;19933;-83
2023/01/20 09:54:16;;;;;;;;;;;;;;;-1.21;100.00;101227.75;10500688;28;19928;-82
2023/01/20 09:59:22;;;;;;;;;;;;;;;-1.15;100.00;101230.00;10468930;28;19960;-83
2023/01/20 10:04:29;;;;;;;;;;;;;;;-1.03;100.00;101238.94;10471554;28;20329;-82
2023/01/20 10:09:36;;;;;;;;;;;;;;;-1.14;100.00;101236.97;10505117;28;19916;-82
2023/01/20 10:14:40;;;;;;;;;;;;;;;-1.20;100.00;101235.59;10495015;28;19920;-80
2023/01/20 10:19:46;;;;;;;;;;;;;;;-1.17;100.00;101236.66;10498099;28;19920;-81
2023/01/20 10:25:09;;;;;;;;;;;;;;;-1.20;100.00;101230.47;10490680;28;19920;-80
2023/01/20 10:30:10;;;;;;;;;;;;;;;-1.15;100.00;101235.16;10488858;28;20279;-81
2023/01/20 10:35:14;;;;;;;;;;;;;;;-1.22;100.00;101231.97;10497088;28;20009;-82
2023/01/20 10:40:14;;;;;;;;;;;;;;;-1.23;100.00;101243.00;10493384;28;19927;-87
2023/01/20 10:45:18;;;;;;;;;;;;;;;-1.20;100.00;101234.72;10493214;28;19931;-80
2023/01/20 10:50:22;;;;;;;;;;;;;;;-1.21;100.00;101225.19;10514574;28;19920;-78
2023/01/20 10:55:22;;;;;;;;;;;;;;;-1.22;100.00;101224.25;10465370;28;19920;-80
2023/01/20 11:00:24;;;;;;;;;;;;;;;-1.24;100.00;101214.59;10495122;28;19924;-80
2023/01/20 11:05:24;;;;;;;;;;;;;;;-1.22;100.00;101214.00;10484751;28;20280;-79
2023/01/20 11:10:26;;;;;;;;;;;;;;;-1.25;100.00;101207.66;10476332;28;19920;-77
2023/01/20 11:15:28;;;;;;;;;;;;;;;-1.10;100.00;101213.41;10487767;28;19921;-79
2023/01/20 11:20:28;;;;;;;;;;;;;;;-0.95;100.00;101207.22;10477175;28;19973;-80
2023/01/20 11:25:28;;;;;;;;;;;;;;;-0.77;100.00;101199.50;10494908;28;19920;-80
2023/01/20 11:30:31;;;;;;;;;;;;;;;-0.80;100.00;101197.56;10476245;28;19924;-79
2023/01/20 11:35:31;;;;;;;;;;;;;;;-0.71;100.00;101201.78;10485416;28;19974;-79
2023/01/20 11:40:32;;;;;;;;;;;;;;;-0.67;100.00;101199.66;10505318;28;20405;-78
2023/01/20 11:45:33;;;;;;;;;;;;;;;-0.55;100.00;101193.91;10494566;28;19924;-79
2023/01/20 11:50:44;;;;;;;;;;;;;;;-0.51;100.00;101191.78;10472706;28;20323;-78
2023/01/20 11:55:46;;;;;;;;;;;;;;;-0.61;100.00;101192.53;10475408;28;19927;-78
2023/01/20 12:00:46;;;;;;;;;;;;;;;-0.66;100.00;101188.63;10503708;28;19923;-78
2023/01/20 12:05:49;;;;;;;;;;;;;;;-0.65;100.00;101192.13;10481973;28;19920;-78
2023/01/20 12:10:49;;;;;;;;;;;;;;;-0.68;100.00;101184.09;10477409;28;19931;-82
2023/01/20 12:15:51;;;;;;;;;;;;;;;-0.61;100.00;101187.41;10467790;28;19973;-78
2023/01/20 12:20:57;;;;;;;;;;;;;;;-0.55;100.00;101187.09;10486258;28;19920;-78
2023/01/20 12:26:01;;;;;;;;;;;;;;;-0.57;100.00;101179.97;10489763;28;19930;-78
2023/01/20 12:31:02;;;;;;;;;;;;;;;-0.60;100.00;101190.91;10493742;28;19920;-78
2023/01/20 12:36:09;;;;;;;;;;;;;;;-0.66;100.00;101178.34;10465347;28;19920;-76
2023/01/20 12:41:12;;;;;;;;;;;;;;;-0.70;100.00;101171.06;10494399;28;20021;-76
2023/01/20 12:46:12;;;;;;;;;;;;;;;-0.66;100.00;101172.31;10486092;28;20031;-78
2023/01/20 12:51:16;;;;;;;;;;;;;;;-0.68;100.00;101182.41;10514334;28;19920;-78
2023/01/20 12:56:16;;;;;;;;;;;;;;;-0.68;100.00;101187.56;10499271;28;19916;-78
2023/01/20 13:01:35;;;;;;;;;;;;;;;-0.62;100.00;101195.88;10513045;28;20401;-77
2023/01/20 13:06:41;;;;;;;;;;;;;;;-0.63;100.00;101201.78;10497597;28;19955;-77
2023/01/20 13:11:57;;;;;;;;;;;;;;;-0.64;100.00;101215.38;10503450;28;19924;-77
2023/01/20 13:16:57;;;;;;;;;;;;;;;-0.52;100.00;101215.69;10515429;28;19965;-77
2023/01/20 13:22:00;;;;;;;;;;;;;;;-0.36;100.00;101219.75;10495396;28;19920;-78
2023/01/20 13:27:01;;;;;;;;;;;;;;;-0.37;100.00;101208.53;10495907;28;19920;-80
2023/01/20 13:32:01;;;;;;;;;;;;;;;-0.24;100.00;101220.03;10506795;28;19924;-80
2023/01/20 13:37:02;;;;;;;;;;;;;;;-0.33;100.00;101225.19;10488332;28;19927;-82
2023/01/20 13:42:02;;;;;;;;;;;;;;;-0.36;100.00;101227.47;10489124;28;19965;-80
2023/01/20 13:47:04;;;;;;;;;;;;;;;-0.41;100.00;101228.69;10496189;28;19925;-79
2023/01/20 13:52:04;;;;;;;;;;;;;;;-0.45;100.00;101241.25;10484126;28;19927;-78
2023/01/20 13:57:24;;;;;;;;;;;;;;;-0.49;100.00;101251.06;10465239;28;20278;-77
2023/01/20 14:02:25;;;;;;;;;;;;;;;-0.52;100.00;101251.69;10508636;28;19931;-78
2023/01/20 14:07:26;;;;;;;;;;;;;;;-0.48;100.00;101260.59;10507435;28;19923;-78
2023/01/20 14:12:26;;;;;;;;;;;;;;;-0.52;100.00;101261.06;10451694;28;20335;-82
2023/01/20 14:17:27;;;;;;;;;;;;;;;-0.52;100.00;101266.19;10440113;28;19924;-78
2023/01/20 14:22:29;;;;;;;;;;;;;;;-0.57;100.00;101272.53;10427565;28;20015;-79
2023/01/20 14:27:32;;;;;;;;;;;;;;;-0.58;100.00;101273.31;10440946;28;19921;-79
2023/01/20 14:32:33;;;;;;;;;;;;;;;-0.58;100.00;101271.66;10430894;28;19921;-80
2023/01/20 14:37:34;;;;;;;;;;;;;;;-0.71;100.00;101279.81;10439843;28;20376;-80
2023/01/20 14:42:35;;;;;;;;;;;;;;;-0.67;100.00;101284.50;10437777;28;19927;-80
2023/01/20 14:47:35;;;;;;;;;;;;;;;-0.69;100.00;101292.81;10467787;28;19927;-79
2023/01/20 14:52:35;;;;;;;;;;;;;;;-0.68;100.00;101292.97;10438553;28;19921;-80
2023/01/20 14:57:43;;;;;;;;;;;;;;;-0.68;100.00;101303.25;10435230;28;19959;-79
2023/01/20 15:02:47;;;;;;;;;;;;;;;-0.68;100.00;101308.38;10443755;28;19924;-80
2023/01/20 15:07:48;;;;;;;;;;;;;;;-0.69;100.00;101319.44;10436144;28;19975;-79
2023/01/20 15:12:48;;;;;;;;;;;;;;;-0.74;100.00;101333.47;10468688;28;19970;-83
2023/01/20 15:18:07;;;;;;;;;;;;;;;-0.77;100.00;101334.09;10481025;28;20372;-80
2023/01/20 15:23:12;;;;;;;;;;;;;;;-0.82;100.00;101339.50;10478169;28;20380;-81
2023/01/20 15:28:26;;;;;;;;;;;;;;;-0.84;100.00;101351.31;10452977;28;19951;-82
2023/01/20 15:33:26;;;;;;;;;;;;;;;-0.86;100.00;101358.88;10462438;28;19967;-83
2023/01/20 15:38:28;;;;;;;;;;;;;;;-0.81;100.00;101369.59;10485951;28;19974;-83
2023/01/20 15:43:28;;;;;;;;;;;;;;;-0.76;100.00;101381.25;10479319;28;20422;-83
2023/01/20 15:48:28;;;;;;;;;;;;;;;-0.78;100.00;101375.97;10480074;28;20050;-84
2023/01/20 15:53:29;;;;;;;;;;;;;;;-0.78;100.00;101395.63;10445589;28;19924;-83
2023/01/20 15:58:31;;;;;;;;;;;;;;;-0.86;100.00;101407.72;10443971;28;19932;-88
2023/01/20 16:03:33;;;;;;;;;;;;;;;-0.90;100.00;101406.47;10440579;28;20452;-85
2023/01/20 16:08:34;;;;;;;;;;;;;;;-0.93;100.00;101420.69;10466439;28;19924;-83
2023/01/20 16:13:35;;;;;;;;;;;;;;;-0.92;100.00;101422.50;10463557;28;19947;-83
2023/01/20 16:18:35;;;;;;;;;;;;;;;-0.94;100.00;101430.03;10481388;28;20310;-83
2023/01/20 16:23:35;;;;;;;;;;;;;;;-1.03;100.00;101436.81;10439531;28;20299;-82
2023/01/20 16:28:36;;;;;;;;;;;;;;;-1.06;100.00;101441.63;10444174;28;19924;-88
2023/01/20 16:33:36;;;;;;;;;;;;;;;-1.11;100.00;101458.22;10488149;28;20639;-86
2023/01/20 16:38:37;;;;;;;;;;;;;;;-1.10;100.00;101463.53;10459913;28;19931;-84
2023/01/20 16:43:39;;;;;;;;;;;;;;;-1.12;100.00;101471.81;10486473;28;19920;-86
2023/01/20 16:48:40;;;;;;;;;;;;;;;-1.05;100.00;101489.69;10489308;28;19916;-87
2023/01/20 16:53:40;;;;;;;;;;;;;;;-1.07;100.00;101496.31;10450111;28;19924;-83
2023/01/20 16:58:41;;;;;;;;;;;;;;;-1.02;100.00;101512.25;10447053;28;19925;-85
2023/01/20 17:03:41;;;;;;;;;;;;;;;-1.01;100.00;101527.81;10456908;28;20440;-89
2023/01/20 17:08:42;;;;;;;;;;;;;;;-0.96;100.00;101530.88;10461953;28;20001;-87
2023/01/20 17:13:42;;;;;;;;;;;;;;;-0.90;100.00;101540.13;10484418;28;19920;-89
2023/01/20 17:18:46;;;;;;;;;;;;;;;-0.92;100.00;101553.56;10516750;28;19920;-89
2023/01/20 17:23:50;;;;;;;;;;;;;;;-0.93;100.00;101565.50;10489570;28;19970;-88
2023/01/20 17:28:56;;;;;;;;;;;;;;;-0.92;100.00;101579.28;10471097;28;20323;-89
2023/01/20 17:33:56;;;;;;;;;;;;;;;-0.92;100.00;101580.16;10469542;28;20412;-89
2023/01/20 17:38:57;;;;;;;;;;;;;;;-0.85;100.00;101596.22;10491465;28;19967;-91
2023/01/20 17:43:57;;;;;;;;;;;;;;;-0.87;100.00;101601.22;10489388;28;19916;-91
2023/01/20 17:48:58;;;;;;;;;;;;;;;-0.80;100.00;101611.41;10488132;28;20304;-90
2023/01/20 17:53:58;;;;;;;;;;;;;;;-0.84;100.00;101619.53;10494038;28;20344;-92
2023/01/20 17:58:59;;;;;;;;;;;;;;;-0.89;100.00;101625.84;10510209;28;20287;-91
2023/01/20 18:03:59;;;;;;;;;;;;;;;-1.02;100.00;101631.34;10495644;28;20069;-91
2023/01/20 18:09:00;;;;;;;;;;;;;;;-1.37;100.00;101638.75;10516527;28;20351;-94
2023/01/20 18:14:02;;;;;;;;;;;;;;;-1.49;100.00;101644.38;10497764;28;19920;-91
2023/01/20 18:19:03;;;;;;;;;;;;;;;-1.61;100.00;101648.19;10453375;28;20276;-88
2023/01/20 18:24:04;;;;;;;;;;;;;;;-1.68;100.00;101668.81;10476751;28;19932;-93
2023/01/20 18:29:05;;;;;;;;;;;;;;;-1.85;100.00;101675.56;10468465;28;19920;-94
2023/01/20 18:34:06;;;;;;;;;;;;;;;-1.94;100.00;101684.81;10504829;28;19933;-92
2023/01/20 18:39:07;;;;;;;;;;;;;;;-1.78;100.00;101696.03;10509621;28;20397;-92
2023/01/20 18:44:08;;;;;;;;;;;;;;;-1.56;100.00;101702.63;10504878;28;19918;-95
2023/01/20 18:49:12;;;;;;;;;;;;;;;-1.42;100.00;101714.38;10468524;28;19920;-93
2023/01/20 18:54:13;;;;;;;;;;;;;;;-1.39;100.00;101738.75;10489363;28;20268;-93
2023/01/20 18:59:13;;;;;;;;;;;;;;;-1.39;100.00;101738.75;10469130;28;19920;-93
2023/01/20 19:04:14;;;;;;;;;;;;;;;-1.41;100.00;101747.97;10469717;28;20330;-92
2023/01/20 19:09:15;;;;;;;;;;;;;;;-1.59;100.00;101748.50;10488079;28;19920;-93
2023/01/20 19:14:16;;;;;;;;;;;;;;;-1.78;100.00;101757.63;10486864;28;19920;-94
2023/01/20 19:19:17;;;;;;;;;;;;;;;-1.99;100.00;101762.91;10471489;28;19998;-95
2023/01/20 19:24:18;;;;;;;;;;;;;;;-2.21;100.00;101768.19;10474040;28;20352;-94
2023/01/20 19:29:19;;;;;;;;;;;;;;;-2.48;100.00;101782.28;10476419;28;19962;-95
2023/01/20 19:34:19;;;;;;;;;;;;;;;-2.71;100.00;101784.78;10480822;28;20325;-95
2023/01/20 19:39:20;;;;;;;;;;;;;;;-2.77;100.00;101796.88;10478609;28;19917;-95
2023/01/20 19:44:20;;;;;;;;;;;;;;;-2.78;100.00;101808.75;10483470;28;19921;-95
2023/01/20 19:49:20;;;;;;;;;;;;;;;-3.06;100.00;101825.13;10475291;28;19917;-94
2023/01/20 19:54:23;;;;;;;;;;;;;;;-3.14;100.00;101842.16;10469912;28;20023;-88
2023/01/20 19:59:23;;;;;;;;;;;;;;;-3.30;100.00;101850.56;10469333;28;19917;-92
2023/01/20 20:04:24;;;;;;;;;;;;;;;-3.42;100.00;101867.03;10486436;28;20998;-93
2023/01/20 20:09:25;;;;;;;;;;;;;;;-3.47;100.00;101870.69;10466713;28;19921;-91
2023/01/20 20:14:26;;;;;;;;;;;;;;;-3.45;100.00;101882.94;10466313;28;19925;-91
2023/01/20 20:19:26;;;;;;;;;;;;;;;-3.37;100.00;101888.97;10470558;28;20007;-93
2023/01/20 20:24:26;;;;;;;;;;;;;;;-3.49;100.00;101905.41;10486549;28;19917;-92
2023/01/20 20:29:27;;;;;;;;;;;;;;;-3.33;100.00;101910.75;10483164;28;19916;-91
2023/01/20 20:34:27;;;;;;;;;;;;;;;-3.47;100.00;101920.25;10465623;28;19962;-90
2023/01/20 20:39:27;;;;;;;;;;;;;;;-3.57;100.00;101927.56;10482058;28;20011;-90
2023/01/20 20:44:28;;;;;;;;;;;;;;;-3.62;100.00;101933.75;10464243;28;19939;-89
2023/01/20 20:49:30;;;;;;;;;;;;;;;-3.58;100.00;101944.53;10481969;28;20356;-89
2023/01/20 20:54:30;;;;;;;;;;;;;;;-3.64;100.00;101954.03;10464030;28;20344;-84
2023/01/20 20:59:30;;;;;;;;;;;;;;;-3.71;100.00;101954.00;10482513;28;19916;-89
2023/01/20 21:04:31;;;;;;;;;;;;;;;-3.74;100.00;101962.25;10464358;28;19947;-89
2023/01/20 21:09:31;;;;;;;;;;;;;;;-3.83;100.00;101967.13;10463963;28;20348;-85
2023/01/20 21:14:32;;;;;;;;;;;;;;;-3.83;100.00;101971.34;10487382;28;19928;-88
2023/01/20 21:19:32;;;;;;;;;;;;;;;-3.83;100.00;101990.16;10488549;28;19916;-89
2023/01/20 21:24:32;;;;;;;;;;;;;;;-4.02;100.00;101996.28;10488657;28;20356;-88
2023/01/20 21:29:33;;;;;;;;;;;;;;;-4.14;100.00;102006.81;10488764;28;20009;-88
2023/01/20 21:34:33;;;;;;;;;;;;;;;-4.22;100.00;102012.63;10470417;28;19916;-88
2023/01/20 21:39:33;;;;;;;;;;;;;;;-4.40;100.00;102017.97;10487280;28;19920;-88
2023/01/20 21:44:35;;;;;;;;;;;;;;;-4.59;100.00;102018.22;10470832;28;19974;-88
2023/01/20 21:54:54;;;;;;;;;;;;;;;-4.70;100.00;102044.03;10529281;28;20006;-88
2023/01/20 21:59:55;;;;;;;;;;;;;;;-4.61;100.00;102051.25;10499857;28;19993;-88
2023/01/20 22:04:55;;;;;;;;;;;;;;;-4.59;100.00;102054.91;10454164;28;20372;-87
2023/01/20 22:09:55;;;;;;;;;;;;;;;-4.78;100.00;102064.41;10495255;28;19927;-87
2023/01/20 22:14:56;;;;;;;;;;;;;;;-4.76;100.00;102075.75;10528852;28;19920;-86
2023/01/20 22:19:56;;;;;;;;;;;;;;;-4.70;100.00;102088.41;10482891;28;20413;-86
2023/01/20 22:24:56;;;;;;;;;;;;;;;-4.82;100.00;102100.50;10484169;28;20030;-87
2023/01/20 22:29:57;;;;;;;;;;;;;;;-4.94;100.00;102116.78;10468584;28;19931;-87
2023/01/20 22:34:57;;;;;;;;;;;;;;;-5.09;100.00;102114.09;10501071;28;19926;-87
2023/01/20 22:39:57;;;;;;;;;;;;;;;-5.01;100.00;102128.75;10486374;28;19950;-82
2023/01/20 22:44:58;;;;;;;;;;;;;;;-5.06;100.00;102137.47;10468744;28;19924;-87
2023/01/20 22:49:58;;;;;;;;;;;;;;;-5.17;100.00;102147.91;10487303;28;19920;-87
2023/01/20 22:54:58;;;;;;;;;;;;;;;-5.32;100.00;102157.03;10502563;28;19920;-88
2023/01/20 22:59:59;;;;;;;;;;;;;;;-5.41;100.00;102161.84;10487688;28;19921;-87
2023/01/20 23:04:59;;;;;;;;;;;;;;;-5.44;100.00;102175.84;10484619;28;19927;-86
2023/01/20 23:09:59;;;;;;;;;;;;;;;-5.47;100.00;102179.81;10469290;28;19971;-87
2023/01/20 23:15:01;;;;;;;;;;;;;;;-5.47;100.00;102189.09;10510778;28;19926;-84
2023/01/20 23:20:01;;;;;;;;;;;;;;;-5.41;100.00;102187.34;10500357;28;20249;-85
2023/01/20 23:25:02;;;;;;;;;;;;;;;-5.48;100.00;102193.28;10505456;28;19920;-82
2023/01/20 23:30:03;;;;;;;;;;;;;;;-5.48;100.00;102194.91;10478455;28;19928;-85
2023/01/20 23:35:03;;;;;;;;;;;;;;;-5.49;100.00;102211.88;10517962;28;19920;-85
2023/01/20 23:40:04;;;;;;;;;;;;;;;-5.34;100.00;102212.06;10510196;28;20006;-84
2023/01/20 23:45:04;;;;;;;;;;;;;;;-5.28;100.00;102215.44;10522309;28;19919;-84
2023/01/20 23:50:05;;;;;;;;;;;;;;;-5.24;100.00;102220.22;10525439;28;19923;-84
2023/01/20 23:55:05;;;;;;;;;;;;;;;-5.23;100.00;102229.72;10523533;28;20394;-84
